Fantasia — ICJY — position and weather

sailwx.info

Track history (hours):
 
Tides and Currents Weather Stations Pressure Air Temp Water Temp Dewpoint Dewpoint Depression Visibility Wind Speed Wind Dir Waves Ship Positions

Fantasia

Last reported at 2015-Jan-30 17:06 UTC. Time now 2015-Jan-31 22:44 UTC.
Position N 57°48' E 010°22'.

Length 183 m; draft 11.9 m.

Type: Tanker. MMSI: 247279600.

Date/timePositionNaut miles runAvg speedWind from/ knotsBaromVisibWave heightAir tempDewpointWater temp
2015-Jan-30 17:06N 57°48' E 010°22'712.8
2015-Jan-30 16:33N 57°48' E 010°35'8 7.6
2015-Jan-30 15:33N 57°43' E 010°45'2 1.5
2015-Jan-30 14:18N 57°42' E 010°42'0 0.0
2015-Jan-30 02:19N 57°42' E 010°43'0 0.0
2015-Jan-30 01:31N 57°42' E 010°43'0 0.0
2015-Jan-30 00:31N 57°42' E 010°43'0 0.0
2015-Jan-29 23:31N 57°42' E 010°43'0 0.0
2015-Jan-29 22:31N 57°42' E 010°43'0 0.0
2015-Jan-29 20:31N 57°42' E 010°43'9 9.1
2015-Jan-29 19:33N 57°36' E 010°56'1413.8
2015-Jan-29 18:33N 57°30' E 011°19'1312.9
2015-Jan-29 17:34N 57°20' E 011°33'1313.2
2015-Jan-29 16:33N 57°07' E 011°39'1313.1
2015-Jan-29 15:33N 56°55' E 011°47'1312.5
2015-Jan-29 14:33N 56°43' E 011°50'1312.7
2015-Jan-29 13:33N 56°31' E 011°40'11511.5
2015-Jan-29 03:33N 54°40' E 010°51'1211.9
2015-Jan-29 02:33N 54°36' E 011°10'1211.9
2015-Jan-29 01:33N 54°31' E 011°29'1211.6
2015-Jan-29 00:33N 54°27' E 011°47'1111.1
2015-Jan-28 23:33N 54°27' E 012°06'1010.3
2015-Jan-28 22:33N 54°35' E 012°17'8 8.4
2015-Jan-28 21:33N 54°41' E 012°28'1111.0
2015-Jan-28 20:33N 54°47' E 012°44'1111.4
2015-Jan-28 19:33N 54°51' E 013°02'1110.7
2015-Jan-28 18:33N 54°55' E 013°19'1111.2
2015-Jan-28 17:33N 54°59' E 013°38'1312.2
2015-Jan-28 16:28N 55°03' E 013°60'1011.3
2015-Jan-28 15:33N 55°10' E 014°13'1211.7
2015-Jan-28 14:33N 55°19' E 014°25'1211.7
2015-Jan-28 13:33N 55°28' E 014°40'1212.0
2015-Jan-28 12:33N 55°33' E 014°58'1212.3
2015-Jan-28 11:33N 55°39' E 015°18'10 9.4
2015-Jan-28 10:31N 55°42' E 015°34'34211.8
2015-Jan-27 05:33N 59°37' E 023°18'1212.5
2015-Jan-27 04:33N 59°41' E 023°41'1312.5
2015-Jan-27 03:33N 59°45' E 024°05'1512.6
2015-Jan-27 02:23N 59°48' E 024°34'1112.7
2015-Jan-27 01:32N 59°50' E 024°55'4112.8
2015-Jan-26 22:21N 59°59' E 026°14'1012.8
2015-Jan-26 21:33N 60°01' E 026°34'1312.9
2015-Jan-26 20:32N 59°59' E 026°60'1212.0
2015-Jan-26 19:33N 60°05' E 027°21'  
2015-Jan-23 14:25N 59°59' E 027°09'1112.8
2015-Jan-23 13:33N 59°59' E 026°47'1313.5
2015-Jan-23 12:34N 59°57' E 026°21'4413.6
2015-Jan-23 09:17N 59°46' E 024°55'1013.2
2015-Jan-23 08:33N 59°44' E 024°36'1312.9
2015-Jan-23 07:33N 59°41' E 024°11'1513.5
2015-Jan-23 06:25N 59°36' E 023°42'1213.5
2015-Jan-23 05:34N 59°33' E 023°21'34412.3
2015-Jan-22 01:33N 55°37' E 015°34'1313.3
2015-Jan-22 00:33N 55°32' E 015°12'1313.3
2015-Jan-21 23:34N 55°27' E 014°51'913.2
2015-Jan-21 22:50N 55°22' E 014°36'113.5
2015-Jan-21 22:46N 55°21' E 014°35'313.6
2015-Jan-21 22:34N 55°19' E 014°33'1312.6
2015-Jan-21 21:34N 55°10' E 014°17'1313.3
2015-Jan-21 20:33N 55°10' E 013°53'1313.0
2015-Jan-21 19:33N 55°11' E 013°31'1212.0
2015-Jan-21 18:33N 55°12' E 013°10'1312.6
2015-Jan-21 17:34N 55°15' E 012°49'1010.3
2015-Jan-21 16:34N 55°24' E 012°39'10 9.9
2015-Jan-21 15:34N 55°34' E 012°42'7 7.5
2015-Jan-21 14:33N 55°41' E 012°38'0 0.1
2015-Jan-21 13:31N 55°41' E 012°38'0 0.0
2015-Jan-21 12:31N 55°41' E 012°38'0 0.0
2015-Jan-21 11:31N 55°41' E 012°38'0 0.0
2015-Jan-21 10:31N 55°41' E 012°38'0 0.0
2015-Jan-21 09:31N 55°41' E 012°38'0 0.0
2015-Jan-21 08:31N 55°41' E 012°38'0 0.0
2015-Jan-21 07:31N 55°41' E 012°38'0 0.0
2015-Jan-21 06:31N 55°41' E 012°38'0 0.0
2015-Jan-21 05:31N 55°41' E 012°38'0 0.0
2015-Jan-21 04:31N 55°41' E 012°38'0 0.0
2015-Jan-21 03:31N 55°41' E 012°38'0 0.0
2015-Jan-21 02:31N 55°41' E 012°38'0 0.0
2015-Jan-21 01:31N 55°41' E 012°38'0 0.0
2015-Jan-21 00:31N 55°41' E 012°38'0 0.0
2015-Jan-20 23:31N 55°41' E 012°38'0 0.0
2015-Jan-20 22:31N 55°41' E 012°38'0 0.0
2015-Jan-20 21:31N 55°41' E 012°38'0 0.0
2015-Jan-20 20:31N 55°41' E 012°38'0 0.0
2015-Jan-20 19:31N 55°41' E 012°38'0 0.0
2015-Jan-20 18:28N 55°41' E 012°38'0 0.0
2015-Jan-20 17:28N 55°41' E 012°38'  
Track history (hours):
 
Tides and Currents Weather Stations Pressure Air Temp Water Temp Dewpoint Dewpoint Depression Visibility Wind Speed Wind Dir Waves Ship Positions

Fantasia

Last reported at 2015-Jan-30 17:06 UTC. Time now 2015-Jan-31 22:44 UTC.
Position N 57°48' E 010°22'.

Length 183 m; draft 11.9 m.

Type: Tanker. MMSI: 247279600.

Date/timePositionNaut miles runAvg speedWind from/ knotsBaromVisibWave heightAir tempDewpointWater temp
2015-Jan-30 17:06N 57°48' E 010°22'712.8
2015-Jan-30 16:33N 57°48' E 010°35'8 7.6
2015-Jan-30 15:33N 57°43' E 010°45'2 1.5
2015-Jan-30 14:18N 57°42' E 010°42'0 0.0
2015-Jan-30 02:19N 57°42' E 010°43'0 0.0
2015-Jan-30 01:31N 57°42' E 010°43'0 0.0
2015-Jan-30 00:31N 57°42' E 010°43'0 0.0
2015-Jan-29 23:31N 57°42' E 010°43'0 0.0
2015-Jan-29 22:31N 57°42' E 010°43'0 0.0
2015-Jan-29 20:31N 57°42' E 010°43'9 9.1
2015-Jan-29 19:33N 57°36' E 010°56'1413.8
2015-Jan-29 18:33N 57°30' E 011°19'1312.9
2015-Jan-29 17:34N 57°20' E 011°33'1313.2
2015-Jan-29 16:33N 57°07' E 011°39'1313.1
2015-Jan-29 15:33N 56°55' E 011°47'1312.5
2015-Jan-29 14:33N 56°43' E 011°50'1312.7
2015-Jan-29 13:33N 56°31' E 011°40'11511.5
2015-Jan-29 03:33N 54°40' E 010°51'1211.9
2015-Jan-29 02:33N 54°36' E 011°10'1211.9
2015-Jan-29 01:33N 54°31' E 011°29'1211.6
2015-Jan-29 00:33N 54°27' E 011°47'1111.1
2015-Jan-28 23:33N 54°27' E 012°06'1010.3
2015-Jan-28 22:33N 54°35' E 012°17'8 8.4
2015-Jan-28 21:33N 54°41' E 012°28'1111.0
2015-Jan-28 20:33N 54°47' E 012°44'1111.4
2015-Jan-28 19:33N 54°51' E 013°02'1110.7
2015-Jan-28 18:33N 54°55' E 013°19'1111.2
2015-Jan-28 17:33N 54°59' E 013°38'1312.2
2015-Jan-28 16:28N 55°03' E 013°60'1011.3
2015-Jan-28 15:33N 55°10' E 014°13'1211.7
2015-Jan-28 14:33N 55°19' E 014°25'1211.7
2015-Jan-28 13:33N 55°28' E 014°40'1212.0
2015-Jan-28 12:33N 55°33' E 014°58'1212.3
2015-Jan-28 11:33N 55°39' E 015°18'10 9.4
2015-Jan-28 10:31N 55°42' E 015°34'34211.8
2015-Jan-27 05:33N 59°37' E 023°18'1212.5
2015-Jan-27 04:33N 59°41' E 023°41'1312.5
2015-Jan-27 03:33N 59°45' E 024°05'1512.6
2015-Jan-27 02:23N 59°48' E 024°34'1112.7
2015-Jan-27 01:32N 59°50' E 024°55'4112.8
2015-Jan-26 22:21N 59°59' E 026°14'1012.8
2015-Jan-26 21:33N 60°01' E 026°34'1312.9
2015-Jan-26 20:32N 59°59' E 026°60'1212.0
2015-Jan-26 19:33N 60°05' E 027°21'  
2015-Jan-23 14:25N 59°59' E 027°09'1112.8
2015-Jan-23 13:33N 59°59' E 026°47'1313.5
2015-Jan-23 12:34N 59°57' E 026°21'4413.6
2015-Jan-23 09:17N 59°46' E 024°55'1013.2
2015-Jan-23 08:33N 59°44' E 024°36'1312.9
2015-Jan-23 07:33N 59°41' E 024°11'1513.5
2015-Jan-23 06:25N 59°36' E 023°42'1213.5
2015-Jan-23 05:34N 59°33' E 023°21'34412.3
2015-Jan-22 01:33N 55°37' E 015°34'1313.3
2015-Jan-22 00:33N 55°32' E 015°12'1313.3
2015-Jan-21 23:34N 55°27' E 014°51'913.2
2015-Jan-21 22:50N 55°22' E 014°36'113.5
2015-Jan-21 22:46N 55°21' E 014°35'313.6
2015-Jan-21 22:34N 55°19' E 014°33'1312.6
2015-Jan-21 21:34N 55°10' E 014°17'1313.3
2015-Jan-21 20:33N 55°10' E 013°53'1313.0
2015-Jan-21 19:33N 55°11' E 013°31'1212.0
2015-Jan-21 18:33N 55°12' E 013°10'1312.6
2015-Jan-21 17:34N 55°15' E 012°49'1010.3
2015-Jan-21 16:34N 55°24' E 012°39'10 9.9
2015-Jan-21 15:34N 55°34' E 012°42'7 7.5
2015-Jan-21 14:33N 55°41' E 012°38'0 0.1
2015-Jan-21 13:31N 55°41' E 012°38'0 0.0
2015-Jan-21 12:31N 55°41' E 012°38'0 0.0
2015-Jan-21 11:31N 55°41' E 012°38'0 0.0
2015-Jan-21 10:31N 55°41' E 012°38'0 0.0
2015-Jan-21 09:31N 55°41' E 012°38'0 0.0
2015-Jan-21 08:31N 55°41' E 012°38'0 0.0
2015-Jan-21 07:31N 55°41' E 012°38'0 0.0
2015-Jan-21 06:31N 55°41' E 012°38'0 0.0
2015-Jan-21 05:31N 55°41' E 012°38'0 0.0
2015-Jan-21 04:31N 55°41' E 012°38'0 0.0
2015-Jan-21 03:31N 55°41' E 012°38'0 0.0
2015-Jan-21 02:31N 55°41' E 012°38'0 0.0
2015-Jan-21 01:31N 55°41' E 012°38'0 0.0
2015-Jan-21 00:31N 55°41' E 012°38'0 0.0
2015-Jan-20 23:31N 55°41' E 012°38'0 0.0
2015-Jan-20 22:31N 55°41' E 012°38'0 0.0
2015-Jan-20 21:31N 55°41' E 012°38'0 0.0
2015-Jan-20 20:31N 55°41' E 012°38'0 0.0
2015-Jan-20 19:31N 55°41' E 012°38'0 0.0
2015-Jan-20 18:28N 55°41' E 012°38'0 0.0
2015-Jan-20 17:28N 55°41' E 012°38'  

Dump ship's entire track history